• Join FlightAware (Why Join?)
  • Login
  • US Flag 
03:57PM EDT


 

Airport Tracker/Info


-or-


 

Live Flight TrackerFlight Track Log ✈ SWA608 ✈ 11-May-2013 ✈ KMCO - KBWI

Flight Track Log - Related Links

Times and Time Zones

All times are in EDT time to prevent confusion due to time zone crossing. See the SWA608 flight status page for this flight to view local times or setup timezone preferences in your user account.

Time Position Orientation Groundspeed Altitude Reporting Facility
EDT Latitude Longitude Course Direction KTS MPH feet Rate Location/Type
06:37AM 28.4167 -81.3000 156° South 171 197 500  Level Orlando TRACON
06:38AM 28.3500 -81.2667 156° South 212 244 2,900 2,400 Climbing Orlando TRACON
06:39AM 28.3333 -81.2167 111° Southeast 246 283 5,900 2,700 Climbing Orlando TRACON
06:41AM 28.5036 -81.1775 11° North 311 358 11,400 2,820 Climbing Jacksonville Center
06:42AM 28.5958 -81.2044 346° North 311 358 14,900 3,180 Climbing Jacksonville Center
06:43AM 28.6881 -81.2431 340° North 336 387 17,800 2,580 Climbing Jacksonville Center
06:44AM 28.7889 -81.2769 344° North 354 407 20,100 2,100 Climbing Jacksonville Center
06:45AM 28.8914 -81.3131 343° North 372 428 22,100 2,160 Climbing Jacksonville Center
06:46AM 29.0039 -81.2806 14° North 402 463 24,500 2,100 Climbing Jacksonville Center
06:47AM 29.1203 -81.2383 18° North 423 487 26,400 1,980 Climbing Jacksonville Center
06:48AM 29.2364 -81.1886 20° North 438 504 28,500 1,620 Climbing Jacksonville Center
06:49AM 29.3381 -81.1489 19° North 438 504 29,700 1,200 Climbing Jacksonville Center
06:50AM 29.4628 -81.0989 19° North 449 517 31,000 1,500 Climbing Jacksonville Center
06:51AM 29.5808 -81.0489 20° North 449 517 32,800 1,680 Climbing Jacksonville Center
06:52AM 29.7056 -80.9989 19° North 454 522 34,400 1,620 Climbing Jacksonville Center
06:53AM 29.8300 -80.9461 20° North 461 531 36,100 1,500 Climbing Jacksonville Center
06:54AM 29.9461 -80.8983 20° North 456 525 37,500 1,320 Climbing Jacksonville Center
06:55AM 30.0622 -80.8503 20° North 450 518 38,800 720 Climbing Jacksonville Center
06:56AM 30.1806 -80.8019 19° North 444 511 39,000 60 Climbing Jacksonville Center
06:57AM 30.2986 -80.7514 20° North 444 511 39,000  Level Jacksonville Center
06:58AM 30.4169 -80.7031 19° North 444 511 39,000  Level Jacksonville Center
06:59AM 30.5350 -80.6519 20° North 444 511 39,000  Level Jacksonville Center
07:00AM 30.6572 -80.6056 18° North 444 511 39,000  Level Jacksonville Center
07:01AM 30.7897 -80.5469 21° North 450 518 39,000  Level Jacksonville Center
07:02AM 30.9058 -80.4981 20° North 450 518 39,000  Level Jacksonville Center
07:03AM 31.0258 -80.4464 20° North 450 518 39,000  Level Jacksonville Center
07:04AM 31.1442 -80.3997 19° North 450 518 39,000  Level Jacksonville Center
07:05AM 31.2664 -80.3503 19° North 450 518 39,000 -60 Level Jacksonville Center
07:06AM 31.3842 -80.2983 21° North 443 510 38,900 -60 Descending Jacksonville Center
07:07AM 31.5022 -80.2439 21° North 448 516 38,900  Level Jacksonville Center
07:08AM 31.6242 -80.1917 20° North 448 516 38,900  Level Jacksonville Center
07:09AM 31.7442 -80.1394 20° North 448 516 38,900  Level Jacksonville Center
07:10AM 31.8619 -80.0894 20° North 448 516 38,900  Level Jacksonville Center
07:11AM 31.9819 -80.0392 20° North 448 516 38,900  Level Jacksonville Center
07:12AM 32.1039 -79.9864 20° North 448 516 38,900  Level Jacksonville Center
07:13AM 32.0971 -79.9908 20° North  Level FlightAware Approximate
07:13AM 32.2258 -79.9308 21° North 454 522 38,900  Level Jacksonville Center
07:14AM 32.3519 -79.8778 20° North 466 536 38,900  Level Jacksonville Center
07:15AM 32.4758 -79.8194 22° Northeast 466 536 38,900  Level Jacksonville Center
07:16AM 32.6017 -79.7658 20° North 466 536 38,900  Level Jacksonville Center
07:17AM 32.7278 -79.7097 21° North 466 536 38,900  Level Jacksonville Center
07:18AM 32.8475 -79.6558 21° North 466 536 38,900  Level Jacksonville Center
07:19AM 32.9692 -79.6019 20° North 459 528 38,900 -960 Level Jacksonville Center
07:20AM 33.0889 -79.5506 20° North 459 528 37,000 -1,020 Descending Jacksonville Center
07:21AM 33.2106 -79.4964 20° North 459 528 36,900 -60 Descending Jacksonville Center
07:22AM 33.3383 -79.4392 21° North 469 540 36,900  Level Jacksonville Center
07:23AM 33.4642 -79.3819 21° North 469 540 36,900  Level Jacksonville Center
07:24AM 33.5919 -79.3247 20° North 475 547 36,900  Level Jacksonville Center
07:25AM 33.7197 -79.2694 20° North 485 558 36,900  Level Jacksonville Center
07:26AM 33.8456 -79.2169 19° North 479 551 36,900  Level Jacksonville Center
07:27AM 33.9750 -79.1564 21° North 484 557 36,900  Level Jacksonville Center
07:29AM 34.1864 -79.0589 21° North 499 574 36,900  Level Washington Center
07:30AM 34.3175 -78.9939 22° Northeast 499 574 36,900  Level Washington Center
07:31AM 34.4347 -78.9031 33° Northeast 494 568 36,900  Level Washington Center
07:32AM 34.5544 -78.8047 34° Northeast 505 581 37,000  Climbing Washington Center
07:33AM 34.6814 -78.7364 24° Northeast 505 581 37,000  Level Washington Center
07:34AM 34.8122 -78.6758 21° North 499 574 37,000  Level Washington Center
07:35AM 34.9389 -78.6147 22° Northeast 493 567 37,000  Level Washington Center
07:36AM 35.0678 -78.5508 22° Northeast 493 567 37,000  Level Washington Center
07:37AM 35.1947 -78.4869 22° Northeast 493 567 37,000  Level Washington Center
07:38AM 35.3361 -78.4156 22° Northeast 499 574 37,000  Level Washington Center
07:39AM 35.4714 -78.3464 23° Northeast 499 574 37,000  Level Washington Center
07:40AM 35.6019 -78.2872 20° North 499 574 37,000  Level Washington Center
07:41AM 35.7308 -78.2250 21° North 499 574 37,000  Level Washington Center
07:42AM 35.8614 -78.1600 22° Northeast 499 574 37,000  Level Washington Center
07:43AM 35.9900 -78.0950 22° Northeast 499 574 37,000 -120 Level Washington Center
07:44AM 36.1208 -78.0297 22° Northeast 499 574 36,800 -1,680 Descending Washington Center
07:45AM 36.2494 -77.9642 22° Northeast 499 574 33,600 -3,300 Descending Washington Center
07:46AM 36.3800 -77.9011 21° North 499 574 30,200 -2,340 Descending Washington Center
07:47AM 36.4958 -77.8397 23° Northeast 499 574 29,000 -660 Descending Washington Center
07:48AM 36.6222 -77.7761 22° Northeast 499 574 29,000  Level Washington Center
07:49AM 36.7508 -77.7125 22° Northeast 499 574 29,000  Level Washington Center
07:50AM 36.8792 -77.6458 23° Northeast 499 574 29,000  Level Washington Center
07:51AM 37.0203 -77.5714 23° Northeast 499 574 29,000  Level Washington Center
07:52AM 37.1483 -77.5069 22° Northeast 499 574 29,000 -420 Level Washington Center
07:53AM 37.2600 -77.4497 22° Northeast 499 574 28,200 -1,740 Descending Washington Center
07:54AM 37.3861 -77.3822 23° Northeast 489 563 25,600 -2,580 Descending Washington Center
07:55AM 37.5058 -77.3222 22° Northeast 476 548 23,100 -1,320 Descending Washington Center
07:56AM 37.6314 -77.2911 11° North 459 528 23,000 -60 Descending Washington Center
07:57AM 37.7633 -77.2650 North 459 528 23,000  Level Washington Center
07:58AM 37.8928 -77.2389 North 470 541 23,000 -120 Level Washington Center
07:59AM 38.0350 -77.2131 North 470 541 22,800 -1,560 Descending Washington Center
08:00AM 38.1625 -77.1869 North 465 535 20,000 -2,640 Descending Washington Center
08:01AM 38.2756 -77.1600 11° North 465 535 17,600 -2,460 Descending Washington Center
08:02AM 38.3992 -77.1125 17° North 436 502 15,000 -2,580 Descending Washington Center
08:03AM 38.4858 -77.0133 42° Northeast 407 468 12,600 -1,620 Descending Washington Center
08:04AM 38.5619 -76.9192 44° Northeast 397 457 11,900 -1,200 Descending Washington Center
08:05AM 38.6317 -76.8356 43° Northeast 366 421 10,300 -1,380 Descending Washington Center
08:06AM 38.6992 -76.7514 44° Northeast 345 397 9,100 -1,260 Descending Washington Center
08:07AM 38.7439 -76.6536 60° Northeast 334 384 7,800 -1,380 Descending Washington Center
08:08AM 38.7886 -76.5531 60° Northeast 321 369 6,400 -1,380 Descending Washington Center
08:09AM 38.8667 -76.5333 11° North 279 321 5,000 -1,440 Descending Potomac TRACON
08:10AM 38.9333 -76.5500 349° North 282 325 3,700 -1,440 Descending Potomac TRACON
08:11AM 39.0167 -76.5667 351° North 269 310 2,500 -900 Descending Potomac TRACON
08:12AM 39.0833 -76.5833 349° North 232 267 1,900 -600 Descending Potomac TRACON
08:13AM 39.1167 -76.6167 322° Northwest 159 183 1,400 -720 Descending Potomac TRACON
08:14AM 39.1500 -76.6500 322° Northwest 145 167 600 -840 Descending Potomac TRACON
08:16AM 39.1667 -76.6667 339° North  Level FlightAware Approximate
08:23AM 39.1754 -76.6683 339° North  Level Estimated
08:24AM 39.1754 -76.6683 339° North  Level Estimated
08:25AM 39.1754 -76.6683 339° North  Level Estimated